createdAt,value
2018-08-03T00:01:30.308Z,21.50
2018-08-03T00:03:58.813Z,21.40
2018-08-03T00:06:27.367Z,21.50
2018-08-03T00:08:55.987Z,21.50
2018-08-03T00:11:24.576Z,21.40
2018-08-03T00:13:53.213Z,21.40
2018-08-03T00:16:21.821Z,21.30
2018-08-03T00:18:50.331Z,21.30
2018-08-03T00:21:18.813Z,21.20
2018-08-03T00:26:15.493Z,21.20
2018-08-03T00:28:44.031Z,21.00
2018-08-03T00:31:12.511Z,21.00
2018-08-03T00:33:41.426Z,21.10
2018-08-03T00:36:09.932Z,21.10
2018-08-03T00:38:38.576Z,21.00
2018-08-03T00:41:07.143Z,20.90
2018-08-03T00:43:35.787Z,20.80
2018-08-03T00:46:04.259Z,20.90
2018-08-03T00:48:32.774Z,20.90
2018-08-03T00:51:01.477Z,20.80
2018-08-03T00:53:30.089Z,20.80
2018-08-03T00:55:58.546Z,20.80
2018-08-03T00:58:27.505Z,20.80
2018-08-03T01:00:56.089Z,20.80
2018-08-03T01:03:24.611Z,20.70
2018-08-03T01:05:53.193Z,20.70
2018-08-03T01:08:21.688Z,20.70
2018-08-03T01:10:50.224Z,20.70
2018-08-03T01:13:18.724Z,20.50
2018-08-03T01:15:47.332Z,20.50
2018-08-03T01:18:16.126Z,20.50
2018-08-03T01:20:44.797Z,20.50
2018-08-03T01:23:13.384Z,20.50
2018-08-03T01:25:41.972Z,20.50
2018-08-03T01:28:10.541Z,20.40
2018-08-03T01:30:39.105Z,20.50
2018-08-03T01:33:07.622Z,20.40
2018-08-03T01:35:36.196Z,20.40
2018-08-03T01:38:04.728Z,20.30
2018-08-03T01:40:33.260Z,20.30
2018-08-03T01:43:01.834Z,20.30
2018-08-03T01:45:30.672Z,20.40
2018-08-03T01:47:59.543Z,20.40
2018-08-03T01:50:28.418Z,20.30
2018-08-03T01:52:56.972Z,20.30
2018-08-03T01:55:25.466Z,20.30
2018-08-03T01:57:54.014Z,20.30
2018-08-03T02:00:22.623Z,20.20
2018-08-03T02:02:51.156Z,20.30
2018-08-03T02:05:19.619Z,20.20
2018-08-03T02:07:48.453Z,20.20
2018-08-03T02:10:17.127Z,20.10
2018-08-03T02:12:45.631Z,20.20
2018-08-03T02:15:14.102Z,20.20
2018-08-03T02:17:42.577Z,20.20
2018-08-03T02:20:11.056Z,20.20
2018-08-03T02:22:39.607Z,20.20
2018-08-03T02:25:08.198Z,20.10
2018-08-03T02:27:36.685Z,20.00
2018-08-03T02:30:05.934Z,20.00
2018-08-03T02:32:34.628Z,19.90
2018-08-03T02:35:03.190Z,20.00
2018-08-03T02:37:31.764Z,19.90
2018-08-03T02:40:00.521Z,19.90
2018-08-03T02:42:29.331Z,20.00
2018-08-03T02:44:58.272Z,19.90
2018-08-03T02:47:26.771Z,19.80
2018-08-03T02:49:55.445Z,19.80
2018-08-03T02:52:23.987Z,19.80
2018-08-03T02:54:52.838Z,19.80
2018-08-03T02:57:21.360Z,19.80
2018-08-03T02:59:50.066Z,19.70
2018-08-03T03:02:18.963Z,19.70
2018-08-03T03:04:47.580Z,19.70
2018-08-03T03:07:16.457Z,19.60
2018-08-03T03:09:45.051Z,19.60
2018-08-03T03:12:13.602Z,19.60
2018-08-03T03:14:42.146Z,19.70
2018-08-03T03:17:10.724Z,19.70
2018-08-03T03:19:39.326Z,19.70
2018-08-03T03:22:07.894Z,19.60
2018-08-03T03:24:36.526Z,19.60
2018-08-03T03:27:05.217Z,19.60
2018-08-03T03:29:33.809Z,19.50
2018-08-03T03:32:02.387Z,19.50
2018-08-03T03:36:59.259Z,19.50
2018-08-03T03:39:34.444Z,19.50
2018-08-03T03:42:03.044Z,19.50
2018-08-03T03:44:31.535Z,19.30
2018-08-03T03:47:00.066Z,19.50
2018-08-03T03:49:28.593Z,19.70
2018-08-03T03:51:57.200Z,19.50
2018-08-03T03:54:25.667Z,19.50
2018-08-03T03:56:54.162Z,19.40
2018-08-03T03:59:22.684Z,19.30
2018-08-03T04:01:51.229Z,19.30
2018-08-03T04:04:19.705Z,19.20
2018-08-03T04:06:48.229Z,19.20
2018-08-03T04:09:16.693Z,19.20
2018-08-03T04:11:45.147Z,19.20
2018-08-03T04:14:13.650Z,19.20
2018-08-03T04:16:42.153Z,19.20
2018-08-03T04:19:10.818Z,19.30
2018-08-03T04:21:39.306Z,19.30
2018-08-03T04:24:07.895Z,19.30
2018-08-03T04:26:36.463Z,19.30
2018-08-03T04:29:04.947Z,19.40
2018-08-03T04:31:33.427Z,19.40
2018-08-03T04:34:02.064Z,19.30
2018-08-03T04:36:30.556Z,19.40
2018-08-03T04:38:59.172Z,19.50
2018-08-03T04:41:27.818Z,19.50
2018-08-03T04:43:56.292Z,19.50
2018-08-03T04:46:27.698Z,19.50
2018-08-03T04:48:56.207Z,19.50
2018-08-03T04:51:24.758Z,19.60
2018-08-03T04:53:53.364Z,19.50
2018-08-03T04:56:21.892Z,19.70
2018-08-03T04:58:50.392Z,19.80
2018-08-03T05:01:18.944Z,20.10
2018-08-03T05:03:47.545Z,20.10
2018-08-03T05:06:16.006Z,20.10
2018-08-03T05:08:44.487Z,20.10
2018-08-03T05:11:12.931Z,20.10
2018-08-03T05:13:41.419Z,20.00
2018-08-03T05:16:09.912Z,20.10
2018-08-03T05:18:38.382Z,20.10
2018-08-03T05:21:07.198Z,20.20
2018-08-03T05:23:35.670Z,20.30
2018-08-03T05:26:04.195Z,20.40
2018-08-03T05:28:32.909Z,20.50
2018-08-03T05:31:01.477Z,20.60
2018-08-03T05:33:30.029Z,20.70
2018-08-03T05:35:58.833Z,20.90
2018-08-03T05:38:27.450Z,21.00
2018-08-03T05:40:55.977Z,21.00
2018-08-03T05:48:20.986Z,21.30
2018-08-03T05:50:49.633Z,21.30
2018-08-03T05:53:18.156Z,21.40
2018-08-03T05:55:46.673Z,21.50
2018-08-03T05:58:15.189Z,21.60
2018-08-03T06:00:43.826Z,21.70
2018-08-03T06:03:12.458Z,21.90
2018-08-03T06:05:40.930Z,22.00
2018-08-03T06:08:09.692Z,22.10
2018-08-03T06:10:38.240Z,22.40
2018-08-03T06:13:07.056Z,22.50
2018-08-03T06:15:35.523Z,22.80
2018-08-03T06:18:04.036Z,23.00
2018-08-03T06:20:32.655Z,23.20
2018-08-03T06:23:01.267Z,23.60
2018-08-03T06:25:29.732Z,23.80
2018-08-03T06:27:58.233Z,24.20
2018-08-03T06:30:26.816Z,24.50
2018-08-03T06:32:55.948Z,25.20
2018-08-03T06:35:24.434Z,25.70
2018-08-03T06:37:53.100Z,26.00
2018-08-03T06:40:21.600Z,26.00
2018-08-03T06:42:50.177Z,25.80
2018-08-03T06:45:18.697Z,26.00
2018-08-03T06:47:47.248Z,26.30
2018-08-03T06:50:16.111Z,27.00
2018-08-03T06:52:44.620Z,27.70
2018-08-03T06:55:13.139Z,28.10
2018-08-03T06:57:41.640Z,28.90
2018-08-03T07:00:10.137Z,29.80
2018-08-03T07:02:38.764Z,29.70
2018-08-03T07:05:07.288Z,30.30
2018-08-03T07:07:36.015Z,30.40
2018-08-03T07:10:05.456Z,30.80
2018-08-03T07:12:33.946Z,31.00
2018-08-03T07:15:02.448Z,31.10
2018-08-03T07:17:31.440Z,31.00
2018-08-03T07:20:00.071Z,31.50
2018-08-03T07:22:28.600Z,31.70
2018-08-03T07:24:57.115Z,32.10
2018-08-03T07:27:25.594Z,32.60
2018-08-03T07:29:54.108Z,32.90
2018-08-03T07:32:22.936Z,33.20
2018-08-03T07:34:51.518Z,33.60
2018-08-03T07:37:20.049Z,33.70
2018-08-03T07:39:55.184Z,33.50
2018-08-03T07:42:23.699Z,33.60
2018-08-03T07:44:52.460Z,34.10
2018-08-03T07:47:20.900Z,34.30
2018-08-03T07:49:49.407Z,34.10
2018-08-03T07:52:17.948Z,33.80
2018-08-03T07:54:46.454Z,33.60
2018-08-03T07:57:14.953Z,34.80
2018-08-03T07:59:43.599Z,35.40
2018-08-03T08:04:40.293Z,36.30
2018-08-03T08:07:08.806Z,36.90
2018-08-03T08:09:37.387Z,37.40
2018-08-03T08:12:06.001Z,37.50
2018-08-03T08:14:34.540Z,37.80
2018-08-03T08:17:03.076Z,37.30
2018-08-03T08:19:31.603Z,36.90
2018-08-03T08:22:00.263Z,37.00
2018-08-03T08:24:28.904Z,37.40
2018-08-03T08:26:57.391Z,38.50
2018-08-03T08:29:25.883Z,39.00
2018-08-03T08:31:54.448Z,38.80
2018-08-03T08:34:22.943Z,38.50
2018-08-03T08:36:51.554Z,38.80
2018-08-03T08:39:20.027Z,38.90
2018-08-03T08:41:48.591Z,38.30
2018-08-03T08:44:17.273Z,38.90
2018-08-03T08:46:45.759Z,38.60
2018-08-03T08:51:42.763Z,39.60
2018-08-03T08:54:11.282Z,39.70
2018-08-03T08:56:39.795Z,39.50
2018-08-03T08:59:08.524Z,39.30
2018-08-03T09:01:37.086Z,39.20
2018-08-03T09:04:05.740Z,40.20
2018-08-03T09:06:34.404Z,39.80
2018-08-03T09:09:03.063Z,39.60
2018-08-03T09:11:31.628Z,40.20
2018-08-03T09:14:00.138Z,40.00
2018-08-03T09:16:28.689Z,39.90
2018-08-03T09:18:57.310Z,40.20
2018-08-03T09:21:25.919Z,39.90
2018-08-03T09:23:54.573Z,39.40
2018-08-03T09:26:23.093Z,40.70
2018-08-03T09:28:51.784Z,40.70
2018-08-03T09:31:20.325Z,42.10
2018-08-03T09:33:48.822Z,41.10
2018-08-03T09:36:18.340Z,41.60
2018-08-03T09:38:46.818Z,41.90
2018-08-03T09:41:15.468Z,42.80
2018-08-03T09:46:12.524Z,43.00
2018-08-03T09:48:41.068Z,43.50
2018-08-03T09:51:09.646Z,43.80
2018-08-03T09:53:38.143Z,43.30
2018-08-03T09:56:06.811Z,44.40
2018-08-03T09:58:35.371Z,43.70
2018-08-03T10:01:09.336Z,44.50
2018-08-03T10:03:38.144Z,43.30
2018-08-03T10:06:06.788Z,43.50
2018-08-03T10:08:35.625Z,43.80
2018-08-03T10:11:04.312Z,44.10
2018-08-03T10:13:32.845Z,44.50
2018-08-03T10:16:01.360Z,44.00
2018-08-03T10:18:29.919Z,44.10
2018-08-03T10:20:58.434Z,44.80
2018-08-03T10:23:26.988Z,44.50
2018-08-03T10:25:55.606Z,43.90
2018-08-03T10:28:24.332Z,44.40
2018-08-03T10:30:52.967Z,44.10
2018-08-03T10:33:21.595Z,44.80
2018-08-03T10:35:50.206Z,45.30
2018-08-03T10:38:18.762Z,45.30
2018-08-03T10:40:47.326Z,45.40
2018-08-03T10:43:16.049Z,45.20
2018-08-03T10:45:44.461Z,45.40
2018-08-03T10:48:13.142Z,45.10
2018-08-03T10:50:41.705Z,45.00
2018-08-03T10:53:10.255Z,43.90
2018-08-03T10:55:38.864Z,44.20
2018-08-03T10:58:07.438Z,45.10
2018-08-03T11:00:36.102Z,44.60
2018-08-03T11:03:04.782Z,44.90
2018-08-03T11:05:33.333Z,44.60
2018-08-03T11:08:01.971Z,44.70
2018-08-03T11:10:30.513Z,42.90
2018-08-03T11:12:59.040Z,41.80
2018-08-03T11:15:27.560Z,41.10
2018-08-03T11:17:56.095Z,40.20
2018-08-03T11:20:24.622Z,38.90
2018-08-03T11:22:53.097Z,37.20
2018-08-03T11:25:21.584Z,36.30
2018-08-03T11:27:50.084Z,36.70
2018-08-03T11:30:18.602Z,36.90
2018-08-03T11:32:47.120Z,37.40
2018-08-03T11:35:15.697Z,37.30
2018-08-03T11:37:44.210Z,37.50
2018-08-03T11:40:12.739Z,37.30
2018-08-03T11:42:41.331Z,36.90
2018-08-03T11:45:10.742Z,36.50
2018-08-03T11:47:39.429Z,36.30
2018-08-03T11:50:09.762Z,36.40
2018-08-03T11:52:38.379Z,35.30
2018-08-03T11:55:07.259Z,35.20
2018-08-03T11:57:35.876Z,35.30
2018-08-03T12:00:05.129Z,36.00
2018-08-03T12:02:33.655Z,36.10
2018-08-03T12:05:02.172Z,36.20
2018-08-03T12:07:30.718Z,36.30
2018-08-03T12:09:59.229Z,36.60
2018-08-03T12:12:27.787Z,36.50
2018-08-03T12:14:56.336Z,35.50
2018-08-03T12:17:24.924Z,34.90
2018-08-03T12:19:53.504Z,34.40
2018-08-03T12:22:21.992Z,34.30
2018-08-03T12:24:50.542Z,34.00
2018-08-03T12:27:19.047Z,34.20
2018-08-03T12:29:47.594Z,34.90
2018-08-03T12:32:16.110Z,35.40
2018-08-03T12:34:44.642Z,35.70
2018-08-03T12:37:13.213Z,35.80
2018-08-03T12:39:41.659Z,35.50
2018-08-03T12:42:10.321Z,35.40
2018-08-03T12:44:38.838Z,35.00
2018-08-03T12:47:07.408Z,34.60
2018-08-03T12:49:36.020Z,34.30
2018-08-03T12:52:04.756Z,34.10
2018-08-03T12:54:33.448Z,33.90
2018-08-03T12:57:02.113Z,33.60
2018-08-03T12:59:30.606Z,33.80
2018-08-03T13:01:59.173Z,34.30
2018-08-03T13:04:27.674Z,34.80
2018-08-03T13:06:56.197Z,35.20
2018-08-03T13:09:24.771Z,35.60
2018-08-03T13:11:53.468Z,35.60
2018-08-03T13:14:22.062Z,35.20
2018-08-03T13:16:50.600Z,34.80
2018-08-03T13:19:19.138Z,34.00
2018-08-03T13:21:47.706Z,34.20
2018-08-03T13:24:16.295Z,34.40
2018-08-03T13:26:44.858Z,34.90
2018-08-03T13:29:13.350Z,34.50
2018-08-03T13:34:10.203Z,34.20
2018-08-03T13:36:38.682Z,34.00
2018-08-03T13:39:08.650Z,33.80
2018-08-03T13:41:37.471Z,33.70
2018-08-03T13:44:06.060Z,33.70
2018-08-03T13:46:34.572Z,33.70
2018-08-03T13:49:03.081Z,34.20
2018-08-03T13:51:31.911Z,34.40
2018-08-03T13:54:00.438Z,34.60
2018-08-03T13:56:28.932Z,34.30
2018-08-03T13:58:57.449Z,34.20
2018-08-03T14:01:39.211Z,34.30
2018-08-03T14:04:07.747Z,34.60
2018-08-03T14:06:36.262Z,34.70
2018-08-03T14:09:06.142Z,34.60
2018-08-03T14:11:34.664Z,34.60
2018-08-03T14:14:03.206Z,34.90
2018-08-03T14:16:31.810Z,34.80
2018-08-03T14:19:00.389Z,35.10
2018-08-03T14:21:29.097Z,35.20
2018-08-03T14:23:57.713Z,34.90
2018-08-03T14:26:26.504Z,34.80
2018-08-03T14:28:55.396Z,34.70
2018-08-03T14:31:23.976Z,34.40
2018-08-03T14:33:52.482Z,34.30
2018-08-03T14:36:20.975Z,34.40
2018-08-03T14:38:49.459Z,34.30
2018-08-03T14:41:18.435Z,34.30
2018-08-03T14:43:46.907Z,34.40
2018-08-03T14:46:15.538Z,34.60
2018-08-03T14:48:44.088Z,34.80
2018-08-03T14:51:12.628Z,34.80
2018-08-03T14:53:41.128Z,34.90
2018-08-03T14:56:09.642Z,34.80
2018-08-03T14:58:38.130Z,34.50
2018-08-03T15:01:06.747Z,33.90
2018-08-03T15:03:35.275Z,33.60
2018-08-03T15:06:03.905Z,33.50
2018-08-03T15:08:32.388Z,33.10
2018-08-03T15:11:00.963Z,33.10
2018-08-03T15:13:29.435Z,33.00
2018-08-03T15:15:58.003Z,32.80
2018-08-03T15:18:26.518Z,32.80
2018-08-03T15:20:55.345Z,32.80
2018-08-03T15:23:23.890Z,32.90
2018-08-03T15:25:52.391Z,32.90
2018-08-03T15:28:20.863Z,33.00
2018-08-03T15:30:49.346Z,33.00
2018-08-03T15:33:17.845Z,33.20
2018-08-03T15:35:46.307Z,33.40
2018-08-03T15:38:14.817Z,33.40
2018-08-03T15:40:43.366Z,33.40
2018-08-03T15:43:12.079Z,33.40
2018-08-03T15:45:40.566Z,33.50
2018-08-03T15:48:09.146Z,33.70
2018-08-03T15:50:37.716Z,33.60
2018-08-03T15:53:06.505Z,33.40
2018-08-03T15:55:35.252Z,33.20
2018-08-03T15:58:03.824Z,32.90
2018-08-03T16:00:32.424Z,32.80
2018-08-03T16:03:01.007Z,32.90
2018-08-03T16:05:29.529Z,32.70
2018-08-03T16:07:58.007Z,32.60
2018-08-03T16:10:26.590Z,32.60
2018-08-03T16:12:55.064Z,32.70
2018-08-03T16:15:23.559Z,32.80
2018-08-03T16:17:52.255Z,32.90
2018-08-03T16:20:20.763Z,33.00
2018-08-03T16:22:49.271Z,33.00
2018-08-03T16:25:17.788Z,33.20
2018-08-03T16:27:46.344Z,33.40
2018-08-03T16:30:14.912Z,33.40
2018-08-03T16:32:43.554Z,33.40
2018-08-03T16:35:12.132Z,33.30
2018-08-03T16:37:40.676Z,33.30
2018-08-03T16:40:09.964Z,33.30
2018-08-03T16:42:38.458Z,33.20
2018-08-03T16:45:07.783Z,33.00
2018-08-03T16:47:36.319Z,33.00
2018-08-03T16:50:05.219Z,33.00
2018-08-03T16:52:33.716Z,32.90
2018-08-03T16:55:02.214Z,32.80
2018-08-03T16:57:30.723Z,32.80
2018-08-03T16:59:59.226Z,32.50
2018-08-03T17:02:27.850Z,32.40
2018-08-03T17:04:56.348Z,32.30
2018-08-03T17:07:24.922Z,32.20
2018-08-03T17:09:53.571Z,32.10
2018-08-03T17:12:22.055Z,32.00
2018-08-03T17:14:50.531Z,31.90
2018-08-03T17:17:19.042Z,31.80
2018-08-03T17:19:47.553Z,31.70
2018-08-03T17:22:16.108Z,31.60
2018-08-03T17:24:44.576Z,31.60
2018-08-03T17:27:13.053Z,31.50
2018-08-03T17:29:41.668Z,31.50
2018-08-03T17:32:10.147Z,31.50
2018-08-03T17:34:38.615Z,31.40
2018-08-03T17:37:07.171Z,31.50
2018-08-03T17:39:35.648Z,31.40
2018-08-03T17:42:04.234Z,31.40
2018-08-03T17:44:32.737Z,31.30
2018-08-03T17:47:01.293Z,31.10
2018-08-03T17:49:29.915Z,31.00
2018-08-03T17:51:58.541Z,31.00
2018-08-03T17:54:27.022Z,31.00
2018-08-03T17:56:55.504Z,30.80
2018-08-03T17:59:24.155Z,30.70
2018-08-03T18:01:52.746Z,30.60
2018-08-03T18:04:21.298Z,30.50
2018-08-03T18:06:49.877Z,30.40
2018-08-03T18:09:18.492Z,30.30
2018-08-03T18:11:47.027Z,30.20
2018-08-03T18:14:15.552Z,30.10
2018-08-03T18:16:43.999Z,30.00
2018-08-03T18:19:12.482Z,29.90
2018-08-03T18:21:40.967Z,29.80
2018-08-03T18:24:09.513Z,29.70
2018-08-03T18:26:37.989Z,29.70
2018-08-03T18:29:06.583Z,29.60
2018-08-03T18:31:35.088Z,29.50
2018-08-03T18:34:03.720Z,29.40
2018-08-03T18:36:32.297Z,29.40
2018-08-03T18:39:00.762Z,29.20
2018-08-03T18:41:29.266Z,29.20
2018-08-03T18:43:57.955Z,29.10
2018-08-03T18:46:26.516Z,29.00
2018-08-03T18:48:55.201Z,28.90
2018-08-03T18:51:24.231Z,28.80
2018-08-03T18:53:52.792Z,28.70
2018-08-03T18:56:21.388Z,28.50
2018-08-03T18:58:49.959Z,28.40
2018-08-03T19:01:18.459Z,28.30
2018-08-03T19:03:46.995Z,28.20
2018-08-03T19:06:15.755Z,28.10
2018-08-03T19:08:44.523Z,28.00
2018-08-03T19:11:12.997Z,27.90
2018-08-03T19:13:41.629Z,27.80
2018-08-03T19:16:10.352Z,27.70
2018-08-03T19:18:39.364Z,27.60
2018-08-03T19:21:08.157Z,27.50
2018-08-03T19:23:36.938Z,27.40
2018-08-03T19:26:05.601Z,27.30
2018-08-03T19:28:34.185Z,27.20
2018-08-03T19:31:02.779Z,27.10
2018-08-03T19:33:31.364Z,27.00
2018-08-03T19:35:59.870Z,27.00
2018-08-03T19:38:28.357Z,26.90
2018-08-03T19:40:56.867Z,26.90
2018-08-03T19:43:25.424Z,26.80
2018-08-03T19:45:53.987Z,26.70
2018-08-03T19:48:22.495Z,26.70
2018-08-03T19:50:51.034Z,26.60
2018-08-03T19:53:19.621Z,26.60
2018-08-03T19:55:48.342Z,26.50
2018-08-03T19:58:17.033Z,26.50
2018-08-03T20:00:45.606Z,26.40
2018-08-03T20:03:14.117Z,26.40
2018-08-03T20:05:42.712Z,26.40
2018-08-03T20:08:11.172Z,26.30
2018-08-03T20:10:39.743Z,26.30
2018-08-03T20:13:08.227Z,26.20
2018-08-03T20:15:36.854Z,26.20
2018-08-03T20:18:06.132Z,26.20
2018-08-03T20:20:34.695Z,26.10
2018-08-03T20:23:04.340Z,26.10
2018-08-03T20:25:32.888Z,26.10
2018-08-03T20:28:01.428Z,26.00
2018-08-03T20:30:29.999Z,25.90
2018-08-03T20:32:58.526Z,25.90
2018-08-03T20:35:27.024Z,25.80
2018-08-03T20:37:55.536Z,25.70
2018-08-03T20:40:24.035Z,25.60
2018-08-03T20:42:52.581Z,25.50
2018-08-03T20:45:21.080Z,25.40
2018-08-03T20:47:49.601Z,25.40
2018-08-03T20:50:18.114Z,25.30
2018-08-03T20:52:46.644Z,25.30
2018-08-03T20:55:15.132Z,25.30
2018-08-03T20:57:43.658Z,25.20
2018-08-03T21:00:12.246Z,25.20
2018-08-03T21:02:40.774Z,25.10
2018-08-03T21:05:09.341Z,25.00
2018-08-03T21:07:38.214Z,25.00
2018-08-03T21:10:06.706Z,24.90
2018-08-03T21:12:35.242Z,24.80
2018-08-03T21:15:04.518Z,24.80
2018-08-03T21:17:33.045Z,24.80
2018-08-03T21:20:01.568Z,24.70
2018-08-03T21:22:30.382Z,24.60
2018-08-03T21:24:59.028Z,24.60
2018-08-03T21:29:55.817Z,24.40
2018-08-03T21:32:24.432Z,24.40
2018-08-03T21:34:52.915Z,24.40
2018-08-03T21:37:21.512Z,24.30
2018-08-03T21:39:50.007Z,24.30
2018-08-03T21:42:18.687Z,24.30
2018-08-03T21:44:47.200Z,24.20
2018-08-03T21:47:15.859Z,24.20
2018-08-03T21:49:44.362Z,24.10
2018-08-03T21:52:12.900Z,24.10
2018-08-03T21:54:41.533Z,24.10
2018-08-03T21:57:10.032Z,24.00
2018-08-03T21:59:38.550Z,24.00
2018-08-03T22:02:07.121Z,23.90
2018-08-03T22:04:35.647Z,23.90
2018-08-03T22:07:04.306Z,23.80
2018-08-03T22:09:32.917Z,23.70
2018-08-03T22:12:01.429Z,23.80
2018-08-03T22:14:29.918Z,23.70
2018-08-03T22:16:58.472Z,23.60
2018-08-03T22:19:27.015Z,23.60
2018-08-03T22:21:55.499Z,23.60
2018-08-03T22:24:24.183Z,23.60
2018-08-03T22:26:53.055Z,23.60
2018-08-03T22:29:22.001Z,23.50
2018-08-03T22:31:50.757Z,23.40
2018-08-03T22:34:19.264Z,23.40
2018-08-03T22:36:48.336Z,23.30
2018-08-03T22:39:16.821Z,23.30
2018-08-03T22:41:45.289Z,23.30
2018-08-03T22:46:42.235Z,23.20
2018-08-03T22:49:10.724Z,23.20
2018-08-03T22:54:07.443Z,23.10
2018-08-03T22:56:35.980Z,23.10
2018-08-03T22:59:04.476Z,23.10
2018-08-03T23:01:32.945Z,23.00
2018-08-03T23:04:01.470Z,23.00
2018-08-03T23:06:30.091Z,22.90
2018-08-03T23:08:58.621Z,22.90
2018-08-03T23:11:27.174Z,22.80
2018-08-03T23:16:23.988Z,22.90
2018-08-03T23:18:52.622Z,22.90
2018-08-03T23:21:21.166Z,22.80
2018-08-03T23:23:49.664Z,22.80
2018-08-03T23:26:18.187Z,22.80
2018-08-03T23:28:46.669Z,22.80
2018-08-03T23:31:15.142Z,22.70
2018-08-03T23:33:43.679Z,22.60
2018-08-03T23:36:12.202Z,22.60
2018-08-03T23:38:40.665Z,22.60
2018-08-03T23:41:09.202Z,22.50
2018-08-03T23:43:37.676Z,22.40
2018-08-03T23:46:06.238Z,22.40
2018-08-03T23:48:35.126Z,22.30
2018-08-03T23:53:31.781Z,22.30
2018-08-03T23:56:00.356Z,22.40
2018-08-03T23:58:28.958Z,22.40
